sensor_id;sensor_type;location;lat;lon;timestamp;P1;durP1;ratioP1;P2;durP2;ratioP2
40599;SDS011;26309;50.924;4.754;2024-01-30T00:01:55;10.82;;;5.55;;
40599;SDS011;26309;50.924;4.754;2024-01-30T00:04:21;6.95;;;5.68;;
40599;SDS011;26309;50.924;4.754;2024-01-30T00:06:47;9.35;;;5.60;;
40599;SDS011;26309;50.924;4.754;2024-01-30T00:09:13;8.38;;;5.72;;
40599;SDS011;26309;50.924;4.754;2024-01-30T00:11:39;7.60;;;5.95;;
40599;SDS011;26309;50.924;4.754;2024-01-30T00:14:05;9.93;;;5.97;;
40599;SDS011;26309;50.924;4.754;2024-01-30T00:16:31;8.32;;;5.43;;
40599;SDS011;26309;50.924;4.754;2024-01-30T00:18:57;7.63;;;5.57;;
40599;SDS011;26309;50.924;4.754;2024-01-30T00:21:23;7.85;;;5.80;;
40599;SDS011;26309;50.924;4.754;2024-01-30T00:23:49;7.55;;;5.90;;
40599;SDS011;26309;50.924;4.754;2024-01-30T00:26:15;7.68;;;5.53;;
40599;SDS011;26309;50.924;4.754;2024-01-30T00:28:41;10.93;;;5.32;;
40599;SDS011;26309;50.924;4.754;2024-01-30T00:31:07;6.22;;;4.90;;
40599;SDS011;26309;50.924;4.754;2024-01-30T00:33:37;7.65;;;5.40;;
40599;SDS011;26309;50.924;4.754;2024-01-30T00:36:08;8.60;;;6.25;;
40599;SDS011;26309;50.924;4.754;2024-01-30T00:38:35;8.80;;;5.97;;
40599;SDS011;26309;50.924;4.754;2024-01-30T00:41:01;7.35;;;5.28;;
40599;SDS011;26309;50.924;4.754;2024-01-30T00:43:27;6.28;;;5.40;;
40599;SDS011;26309;50.924;4.754;2024-01-30T00:45:53;8.45;;;5.20;;
40599;SDS011;26309;50.924;4.754;2024-01-30T00:48:19;6.40;;;5.32;;
40599;SDS011;26309;50.924;4.754;2024-01-30T00:50:45;10.52;;;5.32;;
40599;SDS011;26309;50.924;4.754;2024-01-30T00:53:12;8.85;;;5.45;;
40599;SDS011;26309;50.924;4.754;2024-01-30T00:55:38;9.32;;;5.25;;
40599;SDS011;26309;50.924;4.754;2024-01-30T00:58:04;8.73;;;5.07;;
40599;SDS011;26309;50.924;4.754;2024-01-30T01:00:30;8.68;;;5.22;;
40599;SDS011;26309;50.924;4.754;2024-01-30T01:02:57;7.40;;;5.13;;
40599;SDS011;26309;50.924;4.754;2024-01-30T01:05:24;7.43;;;5.47;;
40599;SDS011;26309;50.924;4.754;2024-01-30T01:07:50;7.22;;;5.35;;
40599;SDS011;26309;50.924;4.754;2024-01-30T01:10:16;6.55;;;5.72;;
40599;SDS011;26309;50.924;4.754;2024-01-30T01:12:43;8.45;;;5.20;;
40599;SDS011;26309;50.924;4.754;2024-01-30T01:15:10;7.68;;;5.15;;
40599;SDS011;26309;50.924;4.754;2024-01-30T01:17:36;6.93;;;5.30;;
40599;SDS011;26309;50.924;4.754;2024-01-30T01:20:03;8.82;;;5.40;;
40599;SDS011;26309;50.924;4.754;2024-01-30T01:22:30;6.57;;;5.15;;
40599;SDS011;26309;50.924;4.754;2024-01-30T01:24:57;6.40;;;4.85;;
40599;SDS011;26309;50.924;4.754;2024-01-30T01:27:24;8.90;;;4.78;;
40599;SDS011;26309;50.924;4.754;2024-01-30T01:29:50;8.82;;;5.55;;
40599;SDS011;26309;50.924;4.754;2024-01-30T01:32:16;8.02;;;5.70;;
40599;SDS011;26309;50.924;4.754;2024-01-30T01:34:42;8.23;;;4.93;;
40599;SDS011;26309;50.924;4.754;2024-01-30T01:37:09;8.00;;;5.20;;
40599;SDS011;26309;50.924;4.754;2024-01-30T01:39:35;7.90;;;5.50;;
40599;SDS011;26309;50.924;4.754;2024-01-30T01:42:00;7.70;;;5.28;;
40599;SDS011;26309;50.924;4.754;2024-01-30T01:44:27;6.75;;;4.93;;
40599;SDS011;26309;50.924;4.754;2024-01-30T01:46:53;9.90;;;4.90;;
40599;SDS011;26309;50.924;4.754;2024-01-30T01:49:20;6.20;;;5.13;;
40599;SDS011;26309;50.924;4.754;2024-01-30T01:51:50;7.38;;;5.10;;
40599;SDS011;26309;50.924;4.754;2024-01-30T01:54:18;10.23;;;5.55;;
40599;SDS011;26309;50.924;4.754;2024-01-30T01:56:44;6.82;;;5.40;;
40599;SDS011;26309;50.924;4.754;2024-01-30T01:59:10;7.15;;;4.90;;
40599;SDS011;26309;50.924;4.754;2024-01-30T02:01:36;7.82;;;4.90;;
40599;SDS011;26309;50.924;4.754;2024-01-30T02:04:03;9.40;;;5.40;;
40599;SDS011;26309;50.924;4.754;2024-01-30T02:06:29;7.22;;;5.20;;
40599;SDS011;26309;50.924;4.754;2024-01-30T02:08:56;6.97;;;5.28;;
40599;SDS011;26309;50.924;4.754;2024-01-30T02:11:22;8.98;;;4.65;;
40599;SDS011;26309;50.924;4.754;2024-01-30T02:13:49;6.70;;;5.63;;
40599;SDS011;26309;50.924;4.754;2024-01-30T02:16:15;6.63;;;4.40;;
40599;SDS011;26309;50.924;4.754;2024-01-30T02:18:42;9.23;;;5.15;;
40599;SDS011;26309;50.924;4.754;2024-01-30T02:21:15;7.00;;;5.15;;
40599;SDS011;26309;50.924;4.754;2024-01-30T02:23:43;8.35;;;4.80;;
40599;SDS011;26309;50.924;4.754;2024-01-30T02:26:10;9.93;;;5.35;;
40599;SDS011;26309;50.924;4.754;2024-01-30T02:28:37;9.25;;;4.68;;
40599;SDS011;26309;50.924;4.754;2024-01-30T02:31:03;6.88;;;5.10;;
40599;SDS011;26309;50.924;4.754;2024-01-30T02:33:29;6.00;;;5.00;;
40599;SDS011;26309;50.924;4.754;2024-01-30T02:35:55;8.77;;;5.03;;
40599;SDS011;26309;50.924;4.754;2024-01-30T02:38:21;9.90;;;5.13;;
40599;SDS011;26309;50.924;4.754;2024-01-30T02:40:48;7.80;;;5.05;;
40599;SDS011;26309;50.924;4.754;2024-01-30T02:43:15;8.52;;;5.25;;
40599;SDS011;26309;50.924;4.754;2024-01-30T02:45:41;7.53;;;5.10;;
40599;SDS011;26309;50.924;4.754;2024-01-30T02:48:07;8.05;;;5.38;;
40599;SDS011;26309;50.924;4.754;2024-01-30T02:50:34;9.57;;;5.50;;
40599;SDS011;26309;50.924;4.754;2024-01-30T02:53:00;6.35;;;5.28;;
40599;SDS011;26309;50.924;4.754;2024-01-30T02:55:26;6.35;;;5.03;;
40599;SDS011;26309;50.924;4.754;2024-01-30T02:57:52;9.68;;;4.97;;
40599;SDS011;26309;50.924;4.754;2024-01-30T03:00:20;7.03;;;5.03;;
40599;SDS011;26309;50.924;4.754;2024-01-30T03:02:46;6.60;;;5.35;;
40599;SDS011;26309;50.924;4.754;2024-01-30T03:05:12;6.97;;;5.00;;
40599;SDS011;26309;50.924;4.754;2024-01-30T03:07:38;10.52;;;5.75;;
40599;SDS011;26309;50.924;4.754;2024-01-30T03:10:04;12.50;;;5.90;;
40599;SDS011;26309;50.924;4.754;2024-01-30T03:12:31;10.40;;;6.13;;
40599;SDS011;26309;50.924;4.754;2024-01-30T03:14:57;7.18;;;5.30;;
40599;SDS011;26309;50.924;4.754;2024-01-30T03:17:23;8.90;;;5.72;;
40599;SDS011;26309;50.924;4.754;2024-01-30T03:19:49;10.10;;;5.63;;
40599;SDS011;26309;50.924;4.754;2024-01-30T03:22:15;9.00;;;6.10;;
40599;SDS011;26309;50.924;4.754;2024-01-30T03:24:41;9.48;;;6.25;;
40599;SDS011;26309;50.924;4.754;2024-01-30T03:27:07;9.52;;;5.85;;
40599;SDS011;26309;50.924;4.754;2024-01-30T03:29:33;10.25;;;6.72;;
40599;SDS011;26309;50.924;4.754;2024-01-30T03:31:59;8.98;;;5.93;;
40599;SDS011;26309;50.924;4.754;2024-01-30T03:34:25;10.70;;;6.50;;
40599;SDS011;26309;50.924;4.754;2024-01-30T03:36:51;8.82;;;6.13;;
40599;SDS011;26309;50.924;4.754;2024-01-30T03:39:17;9.27;;;5.65;;
40599;SDS011;26309;50.924;4.754;2024-01-30T03:41:43;10.88;;;5.85;;
40599;SDS011;26309;50.924;4.754;2024-01-30T03:44:10;11.52;;;6.15;;
40599;SDS011;26309;50.924;4.754;2024-01-30T03:46:36;9.15;;;6.18;;
40599;SDS011;26309;50.924;4.754;2024-01-30T03:49:02;8.80;;;5.38;;
40599;SDS011;26309;50.924;4.754;2024-01-30T03:51:28;8.30;;;5.28;;
40599;SDS011;26309;50.924;4.754;2024-01-30T03:53:54;7.90;;;5.38;;
40599;SDS011;26309;50.924;4.754;2024-01-30T03:56:20;9.80;;;5.78;;
40599;SDS011;26309;50.924;4.754;2024-01-30T03:58:46;10.50;;;5.60;;
40599;SDS011;26309;50.924;4.754;2024-01-30T04:01:15;9.38;;;5.65;;
40599;SDS011;26309;50.924;4.754;2024-01-30T04:03:41;8.70;;;5.28;;
40599;SDS011;26309;50.924;4.754;2024-01-30T04:06:07;13.10;;;5.78;;
40599;SDS011;26309;50.924;4.754;2024-01-30T04:08:33;10.30;;;5.40;;
40599;SDS011;26309;50.924;4.754;2024-01-30T04:11:03;8.70;;;5.00;;
40599;SDS011;26309;50.924;4.754;2024-01-30T04:13:33;9.23;;;5.38;;
40599;SDS011;26309;50.924;4.754;2024-01-30T04:15:59;10.32;;;5.90;;
40599;SDS011;26309;50.924;4.754;2024-01-30T04:18:29;7.00;;;5.40;;
40599;SDS011;26309;50.924;4.754;2024-01-30T04:20:55;10.10;;;5.55;;
40599;SDS011;26309;50.924;4.754;2024-01-30T04:23:21;6.45;;;5.43;;
40599;SDS011;26309;50.924;4.754;2024-01-30T04:25:47;8.85;;;5.70;;
40599;SDS011;26309;50.924;4.754;2024-01-30T04:28:12;7.22;;;5.28;;
40599;SDS011;26309;50.924;4.754;2024-01-30T04:30:39;10.27;;;5.70;;
40599;SDS011;26309;50.924;4.754;2024-01-30T04:33:05;8.30;;;5.30;;
40599;SDS011;26309;50.924;4.754;2024-01-30T04:35:31;8.55;;;5.20;;
40599;SDS011;26309;50.924;4.754;2024-01-30T04:37:56;12.00;;;5.93;;
40599;SDS011;26309;50.924;4.754;2024-01-30T04:40:22;7.75;;;5.53;;
40599;SDS011;26309;50.924;4.754;2024-01-30T04:42:48;12.57;;;6.07;;
40599;SDS011;26309;50.924;4.754;2024-01-30T04:45:14;9.23;;;5.82;;
40599;SDS011;26309;50.924;4.754;2024-01-30T04:47:40;8.88;;;5.22;;
40599;SDS011;26309;50.924;4.754;2024-01-30T04:50:06;12.95;;;6.07;;
40599;SDS011;26309;50.924;4.754;2024-01-30T04:52:33;8.20;;;5.80;;
40599;SDS011;26309;50.924;4.754;2024-01-30T04:54:59;7.90;;;5.75;;
40599;SDS011;26309;50.924;4.754;2024-01-30T04:57:25;8.13;;;5.53;;
40599;SDS011;26309;50.924;4.754;2024-01-30T04:59:51;8.48;;;5.55;;
40599;SDS011;26309;50.924;4.754;2024-01-30T05:02:17;8.68;;;5.53;;
40599;SDS011;26309;50.924;4.754;2024-01-30T05:04:43;8.07;;;6.13;;
40599;SDS011;26309;50.924;4.754;2024-01-30T05:07:09;8.32;;;5.80;;
40599;SDS011;26309;50.924;4.754;2024-01-30T05:09:34;8.77;;;5.50;;
40599;SDS011;26309;50.924;4.754;2024-01-30T05:12:00;9.73;;;5.85;;
40599;SDS011;26309;50.924;4.754;2024-01-30T05:14:26;12.25;;;5.65;;
40599;SDS011;26309;50.924;4.754;2024-01-30T05:16:52;11.00;;;6.00;;
40599;SDS011;26309;50.924;4.754;2024-01-30T05:19:18;10.13;;;5.80;;
40599;SDS011;26309;50.924;4.754;2024-01-30T05:21:44;8.45;;;5.78;;
40599;SDS011;26309;50.924;4.754;2024-01-30T05:24:10;9.75;;;6.07;;
40599;SDS011;26309;50.924;4.754;2024-01-30T05:26:36;10.05;;;5.65;;
40599;SDS011;26309;50.924;4.754;2024-01-30T05:29:02;10.75;;;5.70;;
40599;SDS011;26309;50.924;4.754;2024-01-30T05:31:28;10.57;;;6.50;;
40599;SDS011;26309;50.924;4.754;2024-01-30T05:33:54;8.55;;;5.72;;
40599;SDS011;26309;50.924;4.754;2024-01-30T05:36:20;11.27;;;5.45;;
40599;SDS011;26309;50.924;4.754;2024-01-30T05:38:46;11.80;;;5.68;;
40599;SDS011;26309;50.924;4.754;2024-01-30T05:41:12;12.60;;;5.78;;
40599;SDS011;26309;50.924;4.754;2024-01-30T05:43:38;8.68;;;5.70;;
40599;SDS011;26309;50.924;4.754;2024-01-30T05:46:04;7.22;;;5.57;;
40599;SDS011;26309;50.924;4.754;2024-01-30T05:48:31;10.82;;;6.07;;
40599;SDS011;26309;50.924;4.754;2024-01-30T05:50:57;10.82;;;5.90;;
40599;SDS011;26309;50.924;4.754;2024-01-30T05:53:24;9.63;;;6.25;;
40599;SDS011;26309;50.924;4.754;2024-01-30T05:55:50;9.13;;;6.18;;
40599;SDS011;26309;50.924;4.754;2024-01-30T05:58:16;8.57;;;5.63;;
40599;SDS011;26309;50.924;4.754;2024-01-30T06:00:42;8.38;;;5.75;;
40599;SDS011;26309;50.924;4.754;2024-01-30T06:03:08;10.90;;;6.13;;
40599;SDS011;26309;50.924;4.754;2024-01-30T06:05:34;11.90;;;5.95;;
40599;SDS011;26309;50.924;4.754;2024-01-30T06:08:00;6.80;;;5.85;;
40599;SDS011;26309;50.924;4.754;2024-01-30T06:10:27;9.10;;;5.80;;
40599;SDS011;26309;50.924;4.754;2024-01-30T06:12:52;9.63;;;6.30;;
40599;SDS011;26309;50.924;4.754;2024-01-30T06:15:18;11.70;;;6.28;;
40599;SDS011;26309;50.924;4.754;2024-01-30T06:17:44;11.65;;;6.18;;
40599;SDS011;26309;50.924;4.754;2024-01-30T06:20:10;10.18;;;5.80;;
40599;SDS011;26309;50.924;4.754;2024-01-30T06:22:36;10.27;;;6.15;;
40599;SDS011;26309;50.924;4.754;2024-01-30T06:25:01;10.63;;;5.45;;
40599;SDS011;26309;50.924;4.754;2024-01-30T06:27:27;10.02;;;6.47;;
40599;SDS011;26309;50.924;4.754;2024-01-30T06:29:53;11.20;;;6.00;;
40599;SDS011;26309;50.924;4.754;2024-01-30T06:32:20;10.77;;;6.47;;
40599;SDS011;26309;50.924;4.754;2024-01-30T06:34:46;9.82;;;6.25;;
40599;SDS011;26309;50.924;4.754;2024-01-30T06:37:12;11.95;;;6.00;;
40599;SDS011;26309;50.924;4.754;2024-01-30T06:39:37;13.55;;;6.05;;
40599;SDS011;26309;50.924;4.754;2024-01-30T06:42:03;9.52;;;6.72;;
40599;SDS011;26309;50.924;4.754;2024-01-30T06:44:30;10.80;;;6.35;;
40599;SDS011;26309;50.924;4.754;2024-01-30T06:46:55;9.95;;;6.53;;
40599;SDS011;26309;50.924;4.754;2024-01-30T06:49:21;10.23;;;6.53;;
40599;SDS011;26309;50.924;4.754;2024-01-30T06:51:47;12.63;;;6.07;;
40599;SDS011;26309;50.924;4.754;2024-01-30T06:54:13;9.63;;;6.38;;
40599;SDS011;26309;50.924;4.754;2024-01-30T06:56:39;10.70;;;6.50;;
40599;SDS011;26309;50.924;4.754;2024-01-30T06:59:05;8.90;;;6.15;;
40599;SDS011;26309;50.924;4.754;2024-01-30T07:01:31;11.63;;;7.18;;
40599;SDS011;26309;50.924;4.754;2024-01-30T07:04:00;10.85;;;6.72;;
40599;SDS011;26309;50.924;4.754;2024-01-30T07:06:26;13.90;;;7.00;;
40599;SDS011;26309;50.924;4.754;2024-01-30T07:08:51;12.30;;;6.18;;
40599;SDS011;26309;50.924;4.754;2024-01-30T07:11:21;9.55;;;6.40;;
40599;SDS011;26309;50.924;4.754;2024-01-30T07:13:47;13.27;;;6.90;;
40599;SDS011;26309;50.924;4.754;2024-01-30T07:16:14;10.63;;;7.15;;
40599;SDS011;26309;50.924;4.754;2024-01-30T07:18:40;15.23;;;7.22;;
40599;SDS011;26309;50.924;4.754;2024-01-30T07:21:06;17.80;;;7.53;;
40599;SDS011;26309;50.924;4.754;2024-01-30T07:23:32;13.35;;;7.65;;
40599;SDS011;26309;50.924;4.754;2024-01-30T07:26:00;14.60;;;7.95;;
40599;SDS011;26309;50.924;4.754;2024-01-30T07:28:28;11.25;;;6.70;;
40599;SDS011;26309;50.924;4.754;2024-01-30T07:30:54;14.45;;;7.30;;
40599;SDS011;26309;50.924;4.754;2024-01-30T07:33:20;11.82;;;7.45;;
40599;SDS011;26309;50.924;4.754;2024-01-30T07:35:46;13.30;;;7.85;;
40599;SDS011;26309;50.924;4.754;2024-01-30T07:38:11;13.27;;;7.38;;
40599;SDS011;26309;50.924;4.754;2024-01-30T07:40:37;11.10;;;6.70;;
40599;SDS011;26309;50.924;4.754;2024-01-30T07:43:03;14.07;;;7.50;;
40599;SDS011;26309;50.924;4.754;2024-01-30T07:45:29;13.75;;;7.78;;
40599;SDS011;26309;50.924;4.754;2024-01-30T07:47:58;14.75;;;6.88;;
40599;SDS011;26309;50.924;4.754;2024-01-30T07:50:27;13.75;;;8.10;;
40599;SDS011;26309;50.924;4.754;2024-01-30T07:52:53;14.10;;;7.38;;
40599;SDS011;26309;50.924;4.754;2024-01-30T07:55:20;14.80;;;7.53;;
40599;SDS011;26309;50.924;4.754;2024-01-30T07:57:52;12.05;;;7.05;;
40599;SDS011;26309;50.924;4.754;2024-01-30T08:00:19;13.98;;;7.60;;
40599;SDS011;26309;50.924;4.754;2024-01-30T08:02:46;13.38;;;6.90;;
40599;SDS011;26309;50.924;4.754;2024-01-30T08:05:12;13.10;;;7.05;;
40599;SDS011;26309;50.924;4.754;2024-01-30T08:07:40;11.63;;;6.78;;
40599;SDS011;26309;50.924;4.754;2024-01-30T08:10:07;16.20;;;6.95;;
40599;SDS011;26309;50.924;4.754;2024-01-30T08:12:33;11.30;;;6.72;;
40599;SDS011;26309;50.924;4.754;2024-01-30T08:14:59;11.50;;;7.20;;
40599;SDS011;26309;50.924;4.754;2024-01-30T08:17:25;10.32;;;7.63;;
40599;SDS011;26309;50.924;4.754;2024-01-30T08:19:51;14.43;;;6.82;;
40599;SDS011;26309;50.924;4.754;2024-01-30T08:22:17;13.57;;;6.82;;
40599;SDS011;26309;50.924;4.754;2024-01-30T08:24:43;12.18;;;7.32;;
40599;SDS011;26309;50.924;4.754;2024-01-30T08:27:08;12.52;;;6.80;;
40599;SDS011;26309;50.924;4.754;2024-01-30T08:29:37;13.85;;;6.97;;
40599;SDS011;26309;50.924;4.754;2024-01-30T08:32:04;11.48;;;6.95;;
40599;SDS011;26309;50.924;4.754;2024-01-30T08:34:33;10.32;;;6.85;;
40599;SDS011;26309;50.924;4.754;2024-01-30T08:36:59;10.45;;;6.78;;
40599;SDS011;26309;50.924;4.754;2024-01-30T08:39:25;11.90;;;6.93;;
40599;SDS011;26309;50.924;4.754;2024-01-30T08:41:51;14.02;;;6.93;;
40599;SDS011;26309;50.924;4.754;2024-01-30T08:44:17;13.23;;;6.53;;
40599;SDS011;26309;50.924;4.754;2024-01-30T08:46:43;10.07;;;6.45;;
40599;SDS011;26309;50.924;4.754;2024-01-30T08:49:10;9.95;;;6.38;;
40599;SDS011;26309;50.924;4.754;2024-01-30T08:51:38;12.13;;;7.10;;
40599;SDS011;26309;50.924;4.754;2024-01-30T08:54:04;12.07;;;6.88;;
40599;SDS011;26309;50.924;4.754;2024-01-30T08:56:30;9.45;;;6.40;;
40599;SDS011;26309;50.924;4.754;2024-01-30T08:58:56;10.27;;;6.88;;
40599;SDS011;26309;50.924;4.754;2024-01-30T09:01:22;13.43;;;6.95;;
40599;SDS011;26309;50.924;4.754;2024-01-30T09:03:48;9.25;;;6.53;;
40599;SDS011;26309;50.924;4.754;2024-01-30T09:06:14;10.38;;;7.15;;
40599;SDS011;26309;50.924;4.754;2024-01-30T09:08:39;10.85;;;7.00;;
40599;SDS011;26309;50.924;4.754;2024-01-30T09:11:09;13.80;;;7.43;;
40599;SDS011;26309;50.924;4.754;2024-01-30T09:13:36;14.68;;;6.97;;
40599;SDS011;26309;50.924;4.754;2024-01-30T09:16:02;12.75;;;6.75;;
40599;SDS011;26309;50.924;4.754;2024-01-30T09:18:29;11.80;;;7.07;;
40599;SDS011;26309;50.924;4.754;2024-01-30T09:20:54;11.55;;;7.25;;
40599;SDS011;26309;50.924;4.754;2024-01-30T09:23:22;10.98;;;6.75;;
40599;SDS011;26309;50.924;4.754;2024-01-30T09:25:48;13.35;;;7.25;;
40599;SDS011;26309;50.924;4.754;2024-01-30T09:28:14;14.50;;;7.38;;
40599;SDS011;26309;50.924;4.754;2024-01-30T09:30:49;11.98;;;6.60;;
40599;SDS011;26309;50.924;4.754;2024-01-30T09:33:15;10.45;;;7.00;;
40599;SDS011;26309;50.924;4.754;2024-01-30T09:35:41;14.13;;;7.45;;
40599;SDS011;26309;50.924;4.754;2024-01-30T09:38:07;10.52;;;7.22;;
40599;SDS011;26309;50.924;4.754;2024-01-30T09:40:32;13.98;;;7.47;;
40599;SDS011;26309;50.924;4.754;2024-01-30T09:42:58;11.13;;;7.53;;
40599;SDS011;26309;50.924;4.754;2024-01-30T09:45:27;11.43;;;6.80;;
40599;SDS011;26309;50.924;4.754;2024-01-30T09:47:53;15.68;;;7.82;;
40599;SDS011;26309;50.924;4.754;2024-01-30T09:50:19;13.10;;;7.30;;
40599;SDS011;26309;50.924;4.754;2024-01-30T09:52:46;14.63;;;7.55;;
40599;SDS011;26309;50.924;4.754;2024-01-30T09:55:12;12.05;;;7.13;;
40599;SDS011;26309;50.924;4.754;2024-01-30T09:57:38;13.43;;;7.20;;
40599;SDS011;26309;50.924;4.754;2024-01-30T10:00:05;11.07;;;7.18;;
40599;SDS011;26309;50.924;4.754;2024-01-30T10:02:34;12.38;;;7.30;;
40599;SDS011;26309;50.924;4.754;2024-01-30T10:05:01;11.43;;;7.35;;
40599;SDS011;26309;50.924;4.754;2024-01-30T10:07:27;17.60;;;7.60;;
40599;SDS011;26309;50.924;4.754;2024-01-30T10:09:53;11.38;;;7.45;;
40599;SDS011;26309;50.924;4.754;2024-01-30T10:12:22;13.68;;;7.78;;
40599;SDS011;26309;50.924;4.754;2024-01-30T10:14:48;13.05;;;7.78;;
40599;SDS011;26309;50.924;4.754;2024-01-30T10:17:14;15.35;;;8.25;;
40599;SDS011;26309;50.924;4.754;2024-01-30T10:19:40;12.50;;;7.60;;
40599;SDS011;26309;50.924;4.754;2024-01-30T10:22:06;13.73;;;7.47;;
40599;SDS011;26309;50.924;4.754;2024-01-30T10:24:33;14.55;;;7.68;;
40599;SDS011;26309;50.924;4.754;2024-01-30T10:29:30;12.93;;;7.95;;
40599;SDS011;26309;50.924;4.754;2024-01-30T10:32:03;16.55;;;8.25;;
40599;SDS011;26309;50.924;4.754;2024-01-30T10:34:30;11.02;;;7.65;;
40599;SDS011;26309;50.924;4.754;2024-01-30T10:39:36;14.63;;;8.30;;
40599;SDS011;26309;50.924;4.754;2024-01-30T10:42:04;16.50;;;8.60;;
40599;SDS011;26309;50.924;4.754;2024-01-30T10:44:34;18.30;;;9.15;;
40599;SDS011;26309;50.924;4.754;2024-01-30T10:47:06;18.17;;;9.23;;
40599;SDS011;26309;50.924;4.754;2024-01-30T10:49:36;13.32;;;8.55;;
40599;SDS011;26309;50.924;4.754;2024-01-30T10:52:03;19.35;;;9.30;;
40599;SDS011;26309;50.924;4.754;2024-01-30T10:54:30;25.20;;;10.13;;
40599;SDS011;26309;50.924;4.754;2024-01-30T10:56:59;15.90;;;9.57;;
40599;SDS011;26309;50.924;4.754;2024-01-30T10:59:29;19.40;;;9.48;;
40599;SDS011;26309;50.924;4.754;2024-01-30T11:01:57;16.25;;;8.73;;
40599;SDS011;26309;50.924;4.754;2024-01-30T11:04:24;14.13;;;9.10;;
40599;SDS011;26309;50.924;4.754;2024-01-30T11:06:50;13.07;;;8.98;;
40599;SDS011;26309;50.924;4.754;2024-01-30T11:09:17;15.45;;;8.77;;
40599;SDS011;26309;50.924;4.754;2024-01-30T11:11:51;16.75;;;8.27;;
40599;SDS011;26309;50.924;4.754;2024-01-30T11:14:25;12.20;;;7.63;;
40599;SDS011;26309;50.924;4.754;2024-01-30T11:16:52;20.45;;;8.40;;
40599;SDS011;26309;50.924;4.754;2024-01-30T11:19:25;11.35;;;7.97;;
40599;SDS011;26309;50.924;4.754;2024-01-30T11:21:52;13.38;;;8.15;;
40599;SDS011;26309;50.924;4.754;2024-01-30T11:24:22;13.23;;;7.45;;
40599;SDS011;26309;50.924;4.754;2024-01-30T11:26:55;11.75;;;7.47;;
40599;SDS011;26309;50.924;4.754;2024-01-30T11:29:27;19.67;;;8.10;;
40599;SDS011;26309;50.924;4.754;2024-01-30T11:31:53;12.88;;;7.38;;
40599;SDS011;26309;50.924;4.754;2024-01-30T11:34:20;11.95;;;6.93;;
40599;SDS011;26309;50.924;4.754;2024-01-30T11:36:56;16.67;;;6.22;;
40599;SDS011;26309;50.924;4.754;2024-01-30T11:39:24;13.98;;;6.97;;
40599;SDS011;26309;50.924;4.754;2024-01-30T11:41:54;14.32;;;7.38;;
40599;SDS011;26309;50.924;4.754;2024-01-30T11:44:20;12.40;;;6.55;;
40599;SDS011;26309;50.924;4.754;2024-01-30T11:46:47;14.07;;;6.72;;
40599;SDS011;26309;50.924;4.754;2024-01-30T11:49:14;13.88;;;6.18;;
40599;SDS011;26309;50.924;4.754;2024-01-30T11:51:41;13.27;;;5.57;;
40599;SDS011;26309;50.924;4.754;2024-01-30T11:54:07;14.68;;;5.63;;
40599;SDS011;26309;50.924;4.754;2024-01-30T11:56:33;13.48;;;5.95;;
40599;SDS011;26309;50.924;4.754;2024-01-30T11:58:59;11.38;;;5.53;;
40599;SDS011;26309;50.924;4.754;2024-01-30T12:01:26;9.45;;;4.80;;
40599;SDS011;26309;50.924;4.754;2024-01-30T12:03:52;13.30;;;5.53;;
40599;SDS011;26309;50.924;4.754;2024-01-30T12:06:18;7.78;;;3.95;;
40599;SDS011;26309;50.924;4.754;2024-01-30T12:08:59;10.25;;;3.20;;
40599;SDS011;26309;50.924;4.754;2024-01-30T12:11:31;7.45;;;2.65;;
40599;SDS011;26309;50.924;4.754;2024-01-30T12:13:57;5.82;;;2.78;;
40599;SDS011;26309;50.924;4.754;2024-01-30T12:16:23;4.88;;;2.30;;
40599;SDS011;26309;50.924;4.754;2024-01-30T12:18:58;8.35;;;2.45;;
40599;SDS011;26309;50.924;4.754;2024-01-30T12:21:26;4.75;;;2.30;;
40599;SDS011;26309;50.924;4.754;2024-01-30T12:23:52;4.57;;;1.83;;
40599;SDS011;26309;50.924;4.754;2024-01-30T12:26:17;3.28;;;1.60;;
40599;SDS011;26309;50.924;4.754;2024-01-30T12:28:49;6.57;;;1.67;;
40599;SDS011;26309;50.924;4.754;2024-01-30T12:31:16;4.28;;;1.70;;
40599;SDS011;26309;50.924;4.754;2024-01-30T12:33:41;3.55;;;1.48;;
40599;SDS011;26309;50.924;4.754;2024-01-30T12:36:07;1.65;;;1.17;;
40599;SDS011;26309;50.924;4.754;2024-01-30T12:38:33;2.95;;;1.25;;
40599;SDS011;26309;50.924;4.754;2024-01-30T12:40:59;4.00;;;1.20;;
40599;SDS011;26309;50.924;4.754;2024-01-30T12:43:25;4.40;;;1.17;;
40599;SDS011;26309;50.924;4.754;2024-01-30T12:45:52;4.10;;;1.00;;
40599;SDS011;26309;50.924;4.754;2024-01-30T12:48:18;3.65;;;1.20;;
40599;SDS011;26309;50.924;4.754;2024-01-30T12:50:45;3.67;;;0.98;;
40599;SDS011;26309;50.924;4.754;2024-01-30T12:53:10;4.78;;;1.08;;
40599;SDS011;26309;50.924;4.754;2024-01-30T12:55:37;1.92;;;1.20;;
40599;SDS011;26309;50.924;4.754;2024-01-30T12:58:03;3.67;;;1.08;;
40599;SDS011;26309;50.924;4.754;2024-01-30T13:00:29;2.35;;;1.13;;
40599;SDS011;26309;50.924;4.754;2024-01-30T13:02:55;2.63;;;1.17;;
40599;SDS011;26309;50.924;4.754;2024-01-30T13:05:21;2.42;;;1.00;;
40599;SDS011;26309;50.924;4.754;2024-01-30T13:07:47;2.22;;;0.95;;
40599;SDS011;26309;50.924;4.754;2024-01-30T13:10:13;1.25;;;0.90;;
40599;SDS011;26309;50.924;4.754;2024-01-30T13:12:39;3.15;;;1.20;;
40599;SDS011;26309;50.924;4.754;2024-01-30T13:15:05;1.67;;;0.93;;
40599;SDS011;26309;50.924;4.754;2024-01-30T13:17:31;4.32;;;1.10;;
40599;SDS011;26309;50.924;4.754;2024-01-30T13:19:58;4.97;;;1.20;;
40599;SDS011;26309;50.924;4.754;2024-01-30T13:22:24;1.55;;;0.90;;
40599;SDS011;26309;50.924;4.754;2024-01-30T13:24:50;3.65;;;1.20;;
40599;SDS011;26309;50.924;4.754;2024-01-30T13:27:16;2.88;;;1.00;;
40599;SDS011;26309;50.924;4.754;2024-01-30T13:29:42;3.45;;;1.10;;
40599;SDS011;26309;50.924;4.754;2024-01-30T13:32:08;6.80;;;1.40;;
40599;SDS011;26309;50.924;4.754;2024-01-30T13:34:33;4.45;;;1.08;;
40599;SDS011;26309;50.924;4.754;2024-01-30T13:36:59;4.75;;;1.17;;
40599;SDS011;26309;50.924;4.754;2024-01-30T13:39:25;7.78;;;1.40;;
40599;SDS011;26309;50.924;4.754;2024-01-30T13:41:51;5.65;;;1.30;;
40599;SDS011;26309;50.924;4.754;2024-01-30T13:44:17;5.70;;;1.30;;
40599;SDS011;26309;50.924;4.754;2024-01-30T13:46:43;2.85;;;1.20;;
40599;SDS011;26309;50.924;4.754;2024-01-30T13:49:10;5.55;;;1.55;;
40599;SDS011;26309;50.924;4.754;2024-01-30T13:51:35;4.82;;;1.40;;
40599;SDS011;26309;50.924;4.754;2024-01-30T13:54:01;4.68;;;1.40;;
40599;SDS011;26309;50.924;4.754;2024-01-30T13:56:27;2.67;;;1.25;;
40599;SDS011;26309;50.924;4.754;2024-01-30T13:58:55;5.70;;;1.58;;
40599;SDS011;26309;50.924;4.754;2024-01-30T14:01:21;4.68;;;1.48;;
40599;SDS011;26309;50.924;4.754;2024-01-30T14:03:48;4.28;;;1.45;;
40599;SDS011;26309;50.924;4.754;2024-01-30T14:06:14;6.97;;;1.73;;
40599;SDS011;26309;50.924;4.754;2024-01-30T14:08:40;7.88;;;1.60;;
40599;SDS011;26309;50.924;4.754;2024-01-30T14:11:05;5.43;;;1.38;;
40599;SDS011;26309;50.924;4.754;2024-01-30T14:13:32;4.90;;;1.48;;
40599;SDS011;26309;50.924;4.754;2024-01-30T14:15:58;6.63;;;2.00;;
40599;SDS011;26309;50.924;4.754;2024-01-30T14:18:24;3.22;;;1.55;;
40599;SDS011;26309;50.924;4.754;2024-01-30T14:20:50;3.67;;;1.38;;
40599;SDS011;26309;50.924;4.754;2024-01-30T14:23:17;2.85;;;1.40;;
40599;SDS011;26309;50.924;4.754;2024-01-30T14:25:43;4.32;;;1.48;;
40599;SDS011;26309;50.924;4.754;2024-01-30T14:28:09;3.60;;;1.50;;
40599;SDS011;26309;50.924;4.754;2024-01-30T14:33:12;7.30;;;1.63;;
40599;SDS011;26309;50.924;4.754;2024-01-30T14:35:38;4.25;;;1.55;;
40599;SDS011;26309;50.924;4.754;2024-01-30T14:38:04;4.40;;;1.90;;
40599;SDS011;26309;50.924;4.754;2024-01-30T14:40:30;4.22;;;1.30;;
40599;SDS011;26309;50.924;4.754;2024-01-30T14:42:56;3.78;;;1.25;;
40599;SDS011;26309;50.924;4.754;2024-01-30T14:45:22;4.20;;;1.50;;